Mingo, Iowa
Current Conditions -  °F | °C
As of 9:55 PM on Sunday 23 Nov 2014 (Local Time) from KTNU Reporting Station
Light Rain Light Rain  
Wind Chill: 25°   Ceiling: 800
Heat Index: 36°   Visibility: 4mi
Dew Point: 34°   Wind: 17mph
Humidity: 93%   Direction: 320°NW
Pressure: 29.35"   Gusts: 30mph
Location:  41.77°N, 93.28°W
Report Text: KTNU 240355Z AUTO 32015G26KT 4SM -RA BKN008 BKN014 OVC040 02/01 A2935 RMK AO2
Loading
Personal Weather Stations






























Interactive Weather Map New forecast layout! Learn more

10-Day Weather Forecast

Advertisements
Track Severe Weather on mobile